• Join FlightAware (Why Join?)
  • Login
  • US Flag 
10:27PM EST


 

Airport Tracker/Info


-or-


 

Live Flight TrackerFlight Track Log ✈ SWA920 ✈ 21-Apr-2013 ✈ KMDW - KBNA

Flight Track Log - Related Links

Times and Time Zones

All times are in EDT time to prevent confusion due to time zone crossing. See the SWA920 flight status page for this flight to view local times or setup timezone preferences in your user account.

Time Position Orientation Groundspeed Altitude Reporting Facility
EDT Latitude Longitude Course Direction KTS MPH feet Rate Location/Type
04:05PM 41.7667 -87.7000 180° South 172 198 2,600  Level Chicago TRACON
04:08PM 41.6358 -87.7267 189° South 270 311 10,500 3,300 Climbing Chicago Center
04:09PM 41.5642 -87.7722 205° Southwest 284 327 13,700 2,460 Climbing Chicago Center
04:10PM 41.4628 -87.7769 182° South 363 418 15,600 2,220 Climbing Chicago Center
04:11PM 41.2041 -87.8833 180° South  Level FlightAware Approximate
04:11PM 41.3522 -87.7761 180° South 387 445 18,300  Level Chicago Center
04:12PM 41.2367 -87.7756 180° South 407 468 20,900 2,460 Climbing Chicago Center
04:13PM 41.1161 -87.7747 180° South 424 488 23,400 2,220 Climbing Chicago Center
04:14PM 40.9928 -87.7753 180° South 438 504 25,600 1,740 Climbing Chicago Center
04:15PM 40.8417 -87.7739 180° South 450 518 27,000 660 Climbing Chicago Center
04:16PM 40.7144 -87.7728 180° South 458 527 27,000  Level Chicago Center
04:17PM 40.5881 -87.7731 180° South 457 526 27,000  Level Chicago Center
04:18PM 40.4617 -87.7739 180° South 455 524 27,000  Level Chicago Center
04:19PM 40.3336 -87.7731 180° South 459 528 27,000  Level Chicago Center
04:20PM 40.1942 -87.7667 178° South 460 529 27,000  Level Indianapolis Center
04:21PM 40.0650 -87.7389 171° South 466 536 27,000  Level Indianapolis Center
04:22PM 39.9369 -87.7144 172° South 466 536 27,000  Level Indianapolis Center
04:23PM 39.8092 -87.6894 171° South 464 534 27,000  Level Indianapolis Center
04:24PM 39.6558 -87.6606 172° South 463 533 27,000  Level Indianapolis Center
04:25PM 39.5267 -87.6386 173° South 464 534 27,000  Level Indianapolis Center
04:26PM 39.3983 -87.6161 172° South 464 534 27,000  Level Indianapolis Center
04:27PM 39.2714 -87.5928 172° South 461 531 27,000  Level Indianapolis Center
04:28PM 39.1436 -87.5700 172° South 461 531 27,000  Level Indianapolis Center
04:29PM 39.0172 -87.5467 172° South 458 527 27,000  Level Indianapolis Center
04:30PM 38.8917 -87.5250 172° South 455 524 27,000  Level Indianapolis Center
04:32PM 38.7408 -87.4975 172° South 456 525 27,000  Level Indianapolis Center
04:33PM 38.6164 -87.4761 172° South 454 522 27,000  Level Indianapolis Center
04:34PM 38.4908 -87.4531 172° South 455 524 27,000  Level Indianapolis Center
04:35PM 38.3667 -87.4308 172° South 454 522 27,000  Level Indianapolis Center
04:36PM 38.2431 -87.4100 172° South 454 522 27,000  Level Indianapolis Center
04:37PM 38.0933 -87.3856 173° South 456 525 27,000  Level Indianapolis Center
04:38PM 37.9681 -87.3617 171° South 457 526 27,000  Level Indianapolis Center
04:39PM 37.8425 -87.3403 172° South 457 526 27,000  Level Indianapolis Center
04:40PM 37.7200 -87.3222 173° South 455 524 27,000  Level Indianapolis Center
04:41PM 37.5719 -87.2947 172° South 455 524 27,000  Level Indianapolis Center
04:41PM 37.5417 -87.2892 172° South 464 534 27,000 -2,100 Level Memphis Center
04:42PM 37.4183 -87.2678 172° South 464 534 24,400 -2,100 Descending Memphis Center
04:43PM 37.2947 -87.2414 170° South 454 522 22,800 -2,280 Descending Memphis Center
04:44PM 37.1858 -87.2117 168° South 431 496 20,000 -2,640 Descending Memphis Center
04:45PM 37.0703 -87.1747 166° South 421 484 17,600 -2,700 Descending Memphis Center
04:46PM 36.9611 -87.1428 167° South 408 470 14,600 -3,000 Descending Memphis Center
04:47PM 36.8581 -87.1106 166° South 389 448 11,700 -2,100 Descending Memphis Center
04:48PM 36.7672 -87.0675 159° South 364 419 10,400 -1,140 Descending Memphis Center
04:49PM 36.6847 -87.0192 155° Southeast 331 381 9,500 -660 Descending Memphis Center
04:50PM 36.6211 -86.9806 154° Southeast 301 346 9,100 -240 Descending Memphis Center
04:51PM 36.5533 -86.9369 153° Southeast 283 326 9,100 -420 Level Memphis Center
04:52PM 36.4811 -86.8933 154° Southeast 283 326 8,300 -960 Descending Memphis Center
04:53PM 36.4111 -86.8500 154° Southeast 283 326 7,200 -1,140 Descending Memphis Center
04:54PM 36.3369 -86.8042 154° Southeast 283 326 6,100 -600 Descending Memphis Center
04:55PM 36.2692 -86.7633 154° Southeast 283 326 6,000 -300 Descending Memphis Center
04:56PM 36.1983 -86.7639 180° South 259 298 5,500 -540 Descending Memphis Center
04:57PM 36.1322 -86.7900 198° South 252 290 5,000 -780 Descending Memphis Center
04:58PM 36.0781 -86.7872 178° South 244 281 4,000 -1,200 Descending Memphis Center
04:59PM 36.0372 -86.7481 142° Southeast 193 222 2,700 -1,260 Descending Memphis Center
05:00PM 36.0611 -86.7058 55° Northeast 104 120 1,500 -1,020 Descending Memphis Center
05:01PM 36.0958 -86.6889 22° Northeast 82 94 700 3,720 Descending Memphis Center
05:02PM 36.0992 -86.6581 82° East 82 94 9,000 8,280 Climbing Memphis Center
05:04PM 36.1167 -86.6667 90° East  Level FlightAware Approximate
05:11PM 36.1245 -86.6782 90° East  Level Estimated
05:12PM 36.1245 -86.6782 90° East  Level Estimated
05:13PM 36.1245 -86.6782 90° East  Level Estimated
05:14PM 36.1245 -86.6782 90° East  Level Estimated
05:15PM 36.1245 -86.6782 90° East  Level Estimated
05:16PM 36.1245 -86.6782 90° East  Level Estimated